• Join FlightAware (Why Join?)
  • Login
  • US Flag 
04:15AM EDT


 

Airport Tracker/Info


-or-


 

Live Flight TrackerFlight Track Log ✈ ANE8817 ✈ 27-Apr-2012 ✈ LIMF / TRN - LEMD / MAD

Flight Track Log - Related Links

Times and Time Zones

All times are in EDT time to prevent confusion due to time zone crossing. See the ANE8817 flight status page for this flight to view local times or setup timezone preferences in your user account.

Time Position Orientation Groundspeed Altitude Reporting Facility
EDT Latitude Longitude Course Direction KTS MPH feet Rate Location/Type
02:22AM 45.1474 7.4939 244° Southwest  Level Estimated
02:23AM 45.1045 7.3696 244° Southwest  Level Estimated
02:24AM 45.0616 7.2455 244° Southwest  Level Estimated
02:25AM 45.0185 7.1215 244° Southwest  Level Estimated
02:26AM 44.9752 6.9977 244° Southwest  Level Estimated
02:27AM 44.9318 6.8742 244° Southwest  Level Estimated
02:28AM 44.8883 6.7508 243° Southwest  Level Estimated
02:29AM 44.8447 6.6276 243° Southwest  Level Estimated
02:30AM 44.8009 6.5045 243° Southwest  Level Estimated
02:31AM 44.7570 6.3817 243° Southwest  Level Estimated
02:32AM 44.7129 6.2590 243° Southwest  Level Estimated
02:33AM 44.6688 6.1366 243° Southwest  Level Estimated
02:34AM 44.6245 6.0143 243° Southwest  Level Estimated
02:35AM 44.5800 5.8922 243° Southwest  Level Estimated
02:36AM 44.5355 5.7703 243° Southwest  Level Estimated
02:37AM 44.4908 5.6486 243° Southwest  Level Estimated
02:38AM 44.4459 5.5271 243° Southwest  Level Estimated
02:39AM 44.4010 5.4057 243° Southwest  Level Estimated
02:40AM 44.3559 5.2846 242° Southwest  Level Estimated
02:41AM 44.3107 5.1636 242° Southwest  Level Estimated
02:42AM 44.2654 5.0428 242° Southwest  Level Estimated
02:43AM 44.2199 4.9222 242° Southwest  Level Estimated
02:44AM 44.1743 4.8018 242° Southwest  Level Estimated
02:45AM 44.1286 4.6816 242° Southwest  Level Estimated
02:46AM 44.0827 4.5615 242° Southwest  Level Estimated
02:47AM 44.0368 4.4417 242° Southwest  Level Estimated
02:48AM 43.9907 4.3220 242° Southwest  Level Estimated
02:49AM 43.9445 4.2025 242° Southwest  Level Estimated
02:50AM 43.8981 4.0833 242° Southwest  Level Estimated
02:51AM 43.8517 3.9641 242° Southwest  Level Estimated
02:52AM 43.8051 3.8452 241° Southwest  Level Estimated
02:53AM 43.7584 3.7265 241° Southwest  Level Estimated
02:54AM 43.7115 3.6079 241° Southwest  Level Estimated
02:55AM 43.6646 3.4896 241° Southwest  Level Estimated
02:56AM 43.6175 3.3714 241° Southwest  Level Estimated
02:57AM 43.5703 3.2534 241° Southwest  Level Estimated
02:58AM 43.5230 3.1356 241° Southwest  Level Estimated
02:59AM 43.4755 3.0179 241° Southwest  Level Estimated
03:00AM 43.4280 2.9005 241° Southwest  Level Estimated
03:01AM 43.3803 2.7832 241° Southwest  Level Estimated
03:02AM 43.3325 2.6662 241° Southwest  Level Estimated
03:03AM 43.2846 2.5493 241° Southwest  Level Estimated
03:04AM 43.2365 2.4326 240° Southwest  Level Estimated
03:05AM 43.1884 2.3161 240° Southwest  Level Estimated
03:06AM 43.1401 2.1997 240° Southwest  Level Estimated
03:07AM 43.0917 2.0836 240° Southwest  Level Estimated
03:08AM 43.0432 1.9676 240° Southwest  Level Estimated
03:09AM 42.9946 1.8518 240° Southwest  Level Estimated
03:10AM 42.9458 1.7362 240° Southwest  Level Estimated
03:11AM 42.8969 1.6208 240° Southwest  Level Estimated
03:12AM 42.8480 1.5056 240° Southwest  Level Estimated
03:13AM 42.7989 1.3905 240° Southwest  Level Estimated
03:14AM 42.7497 1.2757 240° Southwest  Level Estimated
03:15AM 42.7004 1.1610 240° Southwest  Level Estimated
03:16AM 42.6509 1.0465 240° Southwest  Level Estimated
03:17AM 42.6014 0.9322 239° Southwest  Level Estimated
03:18AM 42.5517 0.8180 239° Southwest  Level Estimated
03:19AM 42.5019 0.7041 239° Southwest  Level Estimated
03:20AM 42.4520 0.5903 239° Southwest  Level Estimated
03:21AM 42.4020 0.4767 239° Southwest  Level Estimated
03:22AM 42.3519 0.3633 239° Southwest  Level Estimated
03:23AM 42.3017 0.2500 239° Southwest  Level Estimated
03:24AM 42.2514 0.1370 239° Southwest  Level Estimated
03:25AM 42.2009 0.0241 239° Southwest  Level Estimated
03:26AM 42.1503 -0.0886 239° Southwest  Level Estimated
03:27AM 42.0997 -0.2011 239° Southwest  Level Estimated
03:28AM 42.0489 -0.3134 239° Southwest  Level Estimated
03:29AM 41.9980 -0.4256 239° Southwest  Level Estimated
03:30AM 41.9470 -0.5375 238° Southwest  Level Estimated
03:31AM 41.8959 -0.6493 238° Southwest  Level Estimated
03:32AM 41.8447 -0.7610 238° Southwest  Level Estimated
03:33AM 41.7934 -0.8724 238° Southwest  Level Estimated
03:34AM 41.7419 -0.9837 238° Southwest  Level Estimated
03:35AM 41.6904 -1.0947 238° Southwest  Level Estimated
03:36AM 41.6387 -1.2056 238° Southwest  Level Estimated
03:37AM 41.5870 -1.3163 238° Southwest  Level Estimated
03:38AM 41.5351 -1.4269 238° Southwest  Level Estimated
03:39AM 41.4832 -1.5373 238° Southwest  Level Estimated
03:40AM 41.4311 -1.6475 238° Southwest  Level Estimated
03:41AM 41.3789 -1.7575 238° Southwest  Level Estimated
03:42AM 41.3267 -1.8673 238° Southwest  Level Estimated
03:43AM 41.2743 -1.9770 238° Southwest  Level Estimated
03:44AM 41.2218 -2.0865 237° Southwest  Level Estimated
03:45AM 41.1692 -2.1958 237° Southwest  Level Estimated
03:46AM 41.1165 -2.3049 237° Southwest  Level Estimated
03:47AM 41.0637 -2.4139 237° Southwest  Level Estimated
03:48AM 41.0108 -2.5227 237° Southwest  Level Estimated
03:49AM 40.9578 -2.6313 237° Southwest  Level Estimated
03:50AM 40.9047 -2.7397 237° Southwest  Level Estimated
03:51AM 40.8515 -2.8480 237° Southwest  Level Estimated
03:52AM 40.7982 -2.9561 237° Southwest  Level Estimated
03:53AM 40.7448 -3.0640 237° Southwest  Level Estimated
03:54AM 40.6913 -3.1717 237° Southwest  Level Estimated
03:55AM 40.6377 -3.2793 237° Southwest  Level Estimated
03:56AM 40.5840 -3.3867 237° Southwest  Level Estimated
03:57AM 40.5302 -3.4939 237° Southwest  Level Estimated
03:58AM 40.4763 -3.6009 56° Northeast  Level Estimated
03:59AM 40.5302 -3.4939 237° Southwest  Level Estimated
04:00AM 40.4763 -3.6009 56° Northeast  Level Estimated
04:01AM 40.5302 -3.4939 237° Southwest  Level Estimated
04:02AM 40.4763 -3.6009 56° Northeast  Level Estimated
04:03AM 40.5302 -3.4939 237° Southwest  Level Estimated
04:04AM 40.4763 -3.6009 56° Northeast  Level Estimated
04:05AM 40.5302 -3.4939 237° Southwest  Level Estimated
04:06AM 40.4763 -3.6009 56° Northeast  Level Estimated
04:07AM 40.5302 -3.4939 237° Southwest  Level Estimated
04:08AM 40.4763 -3.6009 56° Northeast  Level Estimated
04:09AM 40.5302 -3.4939 237° Southwest  Level Estimated
04:10AM 40.4763 -3.6009 56° Northeast  Level Estimated
04:11AM 40.5302 -3.4939 237° Southwest  Level Estimated
04:12AM 40.4763 -3.6009 56° Northeast  Level Estimated
04:13AM 40.5302 -3.4939 56° Northeast  Level Estimated